Time;durP1;ratioP1;P1;durP2;ratioP2;P2;SDS_P1;SDS_P2;PMS_P1;PMS_P2;Temp;Humidity;BMP_temperature;BMP_pressure;BME280_temperature;BME280_humidity;BME280_pressure;Samples;Min_cycle;Max_cycle;Signal;HPM_P1;HPM_P2
2023/09/16 00:01:29;;;;;;;20.10;16.00;;;;;;;;;;5013632;28;20350;-76
2023/09/16 00:03:55;;;;;;;24.20;17.83;;;;;;;;;;5013893;28;20036;-76
2023/09/16 00:06:21;;;;;;;25.02;17.50;;;;;;;;;;5013633;28;20030;-76
2023/09/16 00:08:47;;;;;;;26.92;18.35;;;;;;;;;;5013496;28;20084;-76
2023/09/16 00:11:13;;;;;;;22.52;16.75;;;;;;;;;;5013612;28;20428;-76
2023/09/16 00:13:41;;;;;;;21.75;16.90;;;;;;;;;;4996038;28;20034;-76
2023/09/16 00:16:08;;;;;;;23.35;16.70;;;;;;;;;;5012168;28;20050;-76
2023/09/16 00:18:35;;;;;;;24.63;17.80;;;;;;;;;;5013791;28;20022;-76
2023/09/16 00:21:00;;;;;;;21.35;17.35;;;;;;;;;;5013757;28;20033;-76
2023/09/16 00:23:27;;;;;;;25.20;17.67;;;;;;;;;;5013451;28;20026;-76
2023/09/16 00:25:53;;;;;;;24.65;17.83;;;;;;;;;;5013362;28;20029;-76
2023/09/16 00:28:19;;;;;;;24.67;18.08;;;;;;;;;;5013244;28;20018;-76
2023/09/16 00:30:45;;;;;;;21.63;17.40;;;;;;;;;;5013271;28;20097;-76
2023/09/16 00:33:11;;;;;;;22.48;16.55;;;;;;;;;;5013773;28;20069;-76
2023/09/16 00:35:38;;;;;;;22.45;17.75;;;;;;;;;;5013510;28;20029;-76
2023/09/16 00:38:04;;;;;;;21.42;17.10;;;;;;;;;;4995952;28;20098;-76
2023/09/16 00:40:30;;;;;;;24.25;18.05;;;;;;;;;;5013721;28;20120;-76
2023/09/16 00:42:56;;;;;;;24.42;17.35;;;;;;;;;;5013437;28;20033;-76
2023/09/16 00:45:22;;;;;;;24.67;17.73;;;;;;;;;;5013376;28;20026;-76
2023/09/16 00:47:48;;;;;;;28.30;17.77;;;;;;;;;;5013386;28;20033;-76
2023/09/16 00:50:14;;;;;;;23.08;17.42;;;;;;;;;;5013224;28;20026;-76
2023/09/16 00:52:54;;;;;;;25.17;17.80;;;;;;;;;;5013378;28;20519;-76
2023/09/16 00:55:20;;;;;;;;;;;;;;;;;;5014437;28;20022;-76
2023/09/16 00:57:49;;;;;;;22.85;17.58;;;;;;;;;;5013452;28;19905;-76
2023/09/16 01:00:16;;;;;;;26.08;18.33;;;;;;;;;;4995712;28;20117;-76
2023/09/16 01:02:43;;;;;;;25.10;17.70;;;;;;;;;;5013285;28;20709;-76
2023/09/16 01:05:17;;;;;;;24.58;18.27;;;;;;;;;;4995856;28;20057;-76
2023/09/16 01:07:45;;;;;;;23.23;17.70;;;;;;;;;;5013437;28;20105;-76
2023/09/16 01:10:13;;;;;;;23.88;17.77;;;;;;;;;;5013358;28;20018;-76
2023/09/16 01:12:39;;;;;;;22.30;17.48;;;;;;;;;;5013221;28;20529;-76
2023/09/16 01:15:06;;;;;;;20.67;17.27;;;;;;;;;;5011651;28;20129;-76
2023/09/16 01:17:35;;;;;;;22.88;17.63;;;;;;;;;;5013533;28;20053;-76
2023/09/16 01:20:10;;;;;;;22.73;17.88;;;;;;;;;;5013238;28;20096;-76
2023/09/16 01:22:39;;;;;;;22.20;17.63;;;;;;;;;;5013466;28;20486;-76
2023/09/16 01:25:05;;;;;;;22.25;16.88;;;;;;;;;;4995451;28;20025;-76
2023/09/16 01:27:31;;;;;;;21.88;16.92;;;;;;;;;;5013545;28;20030;-76
2023/09/16 01:29:58;;;;;;;21.67;17.63;;;;;;;;;;5013117;28;20045;-76
2023/09/16 01:32:27;;;;;;;21.33;18.13;;;;;;;;;;5016181;28;20030;-76
2023/09/16 01:34:54;;;;;;;23.48;17.65;;;;;;;;;;5016901;28;20069;-76
2023/09/16 01:37:22;;;;;;;22.55;18.13;;;;;;;;;;5017228;28;20030;-76
2023/09/16 01:39:56;;;;;;;23.40;18.73;;;;;;;;;;5016970;28;20069;-76
2023/09/16 01:42:23;;;;;;;25.30;17.85;;;;;;;;;;5016437;28;20037;-76
2023/09/16 01:44:53;;;;;;;24.92;18.85;;;;;;;;;;4999222;28;20017;-76
2023/09/16 01:47:19;;;;;;;23.40;18.17;;;;;;;;;;5016466;28;20018;-76
2023/09/16 01:49:45;;;;;;;23.85;18.73;;;;;;;;;;5016265;28;20488;-76
2023/09/16 01:52:11;;;;;;;23.38;18.77;;;;;;;;;;4998753;28;20037;-76
2023/09/16 01:54:37;;;;;;;27.33;19.83;;;;;;;;;;5016420;28;20409;-76
2023/09/16 01:57:17;;;;;;;21.88;17.70;;;;;;;;;;5016064;28;20587;-76
2023/09/16 01:59:43;;;;;;;21.77;18.02;;;;;;;;;;5016320;28;20511;-76
2023/09/16 02:02:09;;;;;;;23.80;19.02;;;;;;;;;;5016349;28;20033;-76
2023/09/16 02:04:36;;;;;;;24.42;18.45;;;;;;;;;;5016242;28;20105;-76
2023/09/16 02:07:02;;;;;;;25.88;18.92;;;;;;;;;;5016227;28;20081;-76
2023/09/16 02:09:28;;;;;;;22.67;17.67;;;;;;;;;;4998827;28;20081;-76
2023/09/16 02:11:54;;;;;;;20.05;17.15;;;;;;;;;;5016070;28;20480;-76
2023/09/16 02:14:20;;;;;;;20.27;17.17;;;;;;;;;;5016340;28;20026;-76
2023/09/16 02:16:46;;;;;;;22.50;16.95;;;;;;;;;;5015417;28;20417;-76
2023/09/16 02:19:12;;;;;;;21.42;17.20;;;;;;;;;;5016035;28;20416;-76
2023/09/16 02:21:39;;;;;;;21.08;17.63;;;;;;;;;;5015994;28;20069;-76
2023/09/16 02:24:05;;;;;;;21.58;16.50;;;;;;;;;;5015503;28;20057;-76
2023/09/16 02:26:31;;;;;;;19.85;15.75;;;;;;;;;;5015660;28;20431;-76
2023/09/16 02:28:57;;;;;;;22.05;16.95;;;;;;;;;;5015746;28;20021;-76
2023/09/16 02:31:28;;;;;;;22.70;16.90;;;;;;;;;;5015389;28;20049;-76
2023/09/16 02:33:58;;;;;;;20.08;16.08;;;;;;;;;;5015809;28;20030;-76
2023/09/16 02:36:24;;;;;;;20.50;15.85;;;;;;;;;;5015530;28;20029;-76
2023/09/16 02:38:51;;;;;;;19.95;16.33;;;;;;;;;;4997866;28;20457;-76
2023/09/16 02:41:20;;;;;;;20.20;16.52;;;;;;;;;;5015601;28;20040;-76
2023/09/16 02:43:49;;;;;;;23.95;16.80;;;;;;;;;;5015614;28;20030;-76
2023/09/16 02:46:15;;;;;;;20.08;16.80;;;;;;;;;;5015338;28;20096;-76
2023/09/16 02:48:41;;;;;;;19.83;16.35;;;;;;;;;;4997374;28;20423;-76
2023/09/16 02:51:11;;;;;;;20.95;17.08;;;;;;;;;;5014951;28;20030;-76
2023/09/16 02:53:38;;;;;;;20.80;16.33;;;;;;;;;;5015247;28;20025;-76
2023/09/16 02:56:04;;;;;;;21.98;16.88;;;;;;;;;;5014855;28;20075;-76
2023/09/16 02:58:30;;;;;;;22.27;17.27;;;;;;;;;;4997782;28;20030;-76
2023/09/16 03:00:56;;;;;;;23.35;16.90;;;;;;;;;;5015038;28;20034;-76
2023/09/16 03:03:22;;;;;;;20.83;16.70;;;;;;;;;;5015046;28;20041;-76
2023/09/16 03:05:48;;;;;;;22.52;17.85;;;;;;;;;;5014612;28;20033;-76
2023/09/16 03:08:14;;;;;;;21.23;16.98;;;;;;;;;;5014574;28;20057;-76
2023/09/16 03:10:40;;;;;;;23.92;17.95;;;;;;;;;;5014636;28;20017;-76
2023/09/16 03:13:06;;;;;;;27.48;18.85;;;;;;;;;;5014628;28;20138;-76
2023/09/16 03:15:39;;;;;;;25.67;17.95;;;;;;;;;;5013202;28;20524;-76
2023/09/16 03:18:05;;;;;;;25.77;18.92;;;;;;;;;;5014490;28;20053;-76
2023/09/16 03:20:31;;;;;;;24.58;18.52;;;;;;;;;;5014577;28;20119;-76
2023/09/16 03:22:57;;;;;;;25.42;18.67;;;;;;;;;;5014450;28;20037;-76
2023/09/16 03:25:23;;;;;;;24.73;17.85;;;;;;;;;;5014254;28;20503;-76
2023/09/16 03:27:49;;;;;;;24.75;17.83;;;;;;;;;;5014095;28;20055;-76
2023/09/16 03:30:17;;;;;;;23.20;17.13;;;;;;;;;;5014075;28;20053;-76
2023/09/16 03:32:44;;;;;;;22.80;16.88;;;;;;;;;;5014408;28;20022;-76
2023/09/16 03:35:10;;;;;;;22.63;17.48;;;;;;;;;;5014195;28;20101;-76
2023/09/16 03:37:36;;;;;;;22.67;17.92;;;;;;;;;;5014655;28;20022;-76
2023/09/16 03:40:03;;;;;;;23.77;18.42;;;;;;;;;;5014218;28;20022;-76
2023/09/16 03:42:29;;;;;;;21.42;17.27;;;;;;;;;;5014169;28;20134;-76
2023/09/16 03:44:55;;;;;;;24.77;17.40;;;;;;;;;;5014017;28;20030;-76
2023/09/16 03:47:21;;;;;;;23.98;17.77;;;;;;;;;;5013854;28;20030;-76
2023/09/16 03:49:46;;;;;;;22.23;17.60;;;;;;;;;;5014189;28;20472;-76
2023/09/16 03:52:13;;;;;;;26.23;17.90;;;;;;;;;;5013971;28;20036;-76
2023/09/16 03:54:39;;;;;;;23.88;17.95;;;;;;;;;;5014027;28;20026;-76
2023/09/16 03:57:05;;;;;;;25.33;19.05;;;;;;;;;;5013778;28;20084;-76
2023/09/16 03:59:31;;;;;;;24.98;18.20;;;;;;;;;;5013981;28;20034;-76
2023/09/16 04:01:57;;;;;;;28.20;19.70;;;;;;;;;;5014017;28;20029;-76
2023/09/16 04:04:29;;;;;;;24.95;19.20;;;;;;;;;;5013586;28;20416;-76
2023/09/16 04:06:55;;;;;;;25.05;19.50;;;;;;;;;;5013945;28;20057;-76
2023/09/16 04:09:21;;;;;;;25.67;18.75;;;;;;;;;;5013739;28;20397;-76
2023/09/16 04:11:47;;;;;;;25.67;19.90;;;;;;;;;;5013733;28;20034;-76
2023/09/16 04:14:13;;;;;;;27.92;19.88;;;;;;;;;;5013869;28;20757;-76
2023/09/16 04:16:39;;;;;;;25.63;18.67;;;;;;;;;;5013771;28;20476;-76
2023/09/16 04:19:05;;;;;;;25.05;18.02;;;;;;;;;;5014077;28;20030;-76
2023/09/16 04:21:31;;;;;;;24.98;17.98;;;;;;;;;;5014097;28;20101;-76
2023/09/16 04:23:57;;;;;;;27.42;19.25;;;;;;;;;;5013644;28;20025;-76
2023/09/16 04:26:23;;;;;;;28.60;19.58;;;;;;;;;;5013573;28;20026;-76
2023/09/16 04:28:49;;;;;;;28.00;19.15;;;;;;;;;;4995775;28;20037;-76
2023/09/16 04:31:15;;;;;;;26.73;18.83;;;;;;;;;;5013432;28;20368;-76
2023/09/16 04:33:41;;;;;;;24.65;18.05;;;;;;;;;;4996212;28;20053;-76
2023/09/16 04:36:08;;;;;;;26.30;17.77;;;;;;;;;;5013814;28;20048;-76
2023/09/16 04:38:34;;;;;;;26.98;19.58;;;;;;;;;;5014034;28;20022;-76
2023/09/16 04:41:00;;;;;;;27.42;19.27;;;;;;;;;;4995878;28;20026;-76
2023/09/16 04:43:26;;;;;;;21.45;16.52;;;;;;;;;;5013610;28;20034;-76
2023/09/16 04:45:54;;;;;;;25.58;17.60;;;;;;;;;;5012896;28;20088;-76
2023/09/16 04:48:22;;;;;;;22.77;15.23;;;;;;;;;;5000233;28;20026;-76
2023/09/16 04:50:49;;;;;;;32.75;18.13;;;;;;;;;;5013379;28;20078;-76
2023/09/16 04:53:16;;;;;;;29.23;18.38;;;;;;;;;;4996080;28;20117;-76
2023/09/16 04:55:42;;;;;;;24.02;16.70;;;;;;;;;;5013578;28;20080;-76
2023/09/16 04:58:08;;;;;;;22.25;16.00;;;;;;;;;;5012968;28;20029;-76
2023/09/16 05:00:34;;;;;;;25.17;17.48;;;;;;;;;;5013197;28;20026;-76
2023/09/16 05:03:00;;;;;;;30.63;18.98;;;;;;;;;;5013366;28;20030;-76
2023/09/16 05:05:26;;;;;;;23.35;17.35;;;;;;;;;;5013922;28;20058;-77
2023/09/16 05:07:52;;;;;;;24.75;17.30;;;;;;;;;;5017750;28;20448;-77
2023/09/16 05:10:18;;;;;;;24.00;17.20;;;;;;;;;;5017474;28;20053;-76
2023/09/16 05:12:44;;;;;;;23.73;16.40;;;;;;;;;;5018049;28;20084;-76
2023/09/16 05:15:10;;;;;;;20.33;15.82;;;;;;;;;;5016261;28;20026;-77
2023/09/16 05:17:37;;;;;;;26.55;15.40;;;;;;;;;;5018528;28;20030;-76
2023/09/16 05:20:03;;;;;;;24.70;14.80;;;;;;;;;;5019675;28;20014;-76
2023/09/16 05:22:29;;;;;;;20.42;15.15;;;;;;;;;;5001663;28;20120;-76
2023/09/16 05:24:55;;;;;;;24.30;15.30;;;;;;;;;;4999732;28;20062;-77
2023/09/16 05:27:22;;;;;;;18.55;15.02;;;;;;;;;;4999039;28;20033;-76
2023/09/16 05:29:52;;;;;;;22.15;15.63;;;;;;;;;;4981166;28;20023;-76
2023/09/16 05:32:18;;;;;;;19.77;14.73;;;;;;;;;;4999829;28;20026;-76
2023/09/16 05:34:44;;;;;;;19.30;15.20;;;;;;;;;;4999379;28;20425;-76
2023/09/16 05:37:10;;;;;;;20.27;16.13;;;;;;;;;;4998767;28;20022;-76
2023/09/16 05:39:36;;;;;;;20.27;15.52;;;;;;;;;;4999022;28;20057;-76
2023/09/16 05:42:02;;;;;;;20.00;15.00;;;;;;;;;;4999681;28;20093;-76
2023/09/16 05:44:28;;;;;;;15.77;13.35;;;;;;;;;;5000039;28;20026;-76
2023/09/16 05:46:55;;;;;;;15.40;13.38;;;;;;;;;;4998586;28;20035;-76
2023/09/16 05:49:21;;;;;;;14.95;13.15;;;;;;;;;;4999922;28;20030;-76
2023/09/16 05:51:47;;;;;;;17.40;12.95;;;;;;;;;;4999656;28;20049;-76
2023/09/16 05:54:15;;;;;;;15.18;13.43;;;;;;;;;;4981965;28;20031;-76
2023/09/16 05:56:42;;;;;;;15.68;13.55;;;;;;;;;;4999533;28;20038;-77
2023/09/16 05:59:08;;;;;;;15.00;13.50;;;;;;;;;;5016280;28;20028;-76
2023/09/16 06:01:35;;;;;;;15.80;14.10;;;;;;;;;;5016925;28;20022;-77
2023/09/16 06:04:01;;;;;;;16.17;14.38;;;;;;;;;;5017058;28;20072;-77
2023/09/16 06:06:27;;;;;;;31.33;16.02;;;;;;;;;;5017234;28;20412;-77
2023/09/16 06:08:53;;;;;;;19.98;15.77;;;;;;;;;;5017382;28;20018;-77
2023/09/16 06:11:19;;;;;;;22.13;15.73;;;;;;;;;;4999821;28;20491;-75
2023/09/16 06:13:45;;;;;;;24.13;16.38;;;;;;;;;;4998965;28;20030;-76
2023/09/16 06:16:11;;;;;;;19.02;16.65;;;;;;;;;;5015692;28;20089;-76
2023/09/16 06:18:37;;;;;;;17.60;15.65;;;;;;;;;;5016740;28;20104;-76
2023/09/16 06:21:03;;;;;;;17.88;15.98;;;;;;;;;;5017407;28;20080;-76
2023/09/16 06:23:29;;;;;;;16.92;14.55;;;;;;;;;;5016339;28;20100;-76
2023/09/16 06:25:55;;;;;;;16.75;14.98;;;;;;;;;;4998323;28;20029;-76
2023/09/16 06:28:21;;;;;;;18.40;16.50;;;;;;;;;;4998763;28;20356;-76
2023/09/16 06:30:47;;;;;;;20.83;17.15;;;;;;;;;;5016060;28;20026;-76
2023/09/16 06:33:13;;;;;;;19.13;16.40;;;;;;;;;;5016945;28;20029;-76
2023/09/16 06:35:39;;;;;;;20.10;16.65;;;;;;;;;;5015676;28;20549;-76
2023/09/16 06:38:05;;;;;;;19.60;16.63;;;;;;;;;;5015368;28;20025;-77
2023/09/16 06:40:31;;;;;;;21.00;17.73;;;;;;;;;;5015300;28;20026;-76
2023/09/16 06:42:57;;;;;;;24.38;18.58;;;;;;;;;;5015282;28;20026;-76
2023/09/16 06:45:23;;;;;;;22.00;18.33;;;;;;;;;;5015204;28;20022;-76
2023/09/16 06:47:49;;;;;;;23.55;18.65;;;;;;;;;;5015246;28;20048;-76
2023/09/16 06:50:15;;;;;;;24.77;19.92;;;;;;;;;;5015137;28;20033;-76
2023/09/16 06:52:41;;;;;;;24.83;19.35;;;;;;;;;;5015332;28;20042;-76
2023/09/16 06:55:08;;;;;;;27.40;21.73;;;;;;;;;;5015076;28;20079;-76
2023/09/16 06:57:34;;;;;;;34.10;25.67;;;;;;;;;;4997531;28;20059;-77
2023/09/16 07:00:00;;;;;;;30.58;23.77;;;;;;;;;;5014920;28;20037;-77
2023/09/16 07:02:26;;;;;;;26.02;22.42;;;;;;;;;;5015019;28;20022;-76
2023/09/16 07:04:55;;;;;;;23.80;20.95;;;;;;;;;;4997302;28;20040;-77
2023/09/16 07:07:23;;;;;;;23.70;20.10;;;;;;;;;;5015158;28;20022;-77
2023/09/16 07:09:49;;;;;;;19.88;17.20;;;;;;;;;;4997405;28;20037;-77
2023/09/16 07:12:15;;;;;;;17.38;15.50;;;;;;;;;;5014906;28;20069;-77
2023/09/16 07:14:41;;;;;;;16.08;14.23;;;;;;;;;;5014858;28;20107;-77
2023/09/16 07:17:07;;;;;;;15.25;13.57;;;;;;;;;;5014740;28;20077;-77
2023/09/16 07:19:34;;;;;;;15.63;12.82;;;;;;;;;;5014971;28;20029;-78
2023/09/16 07:22:00;;;;;;;14.63;13.05;;;;;;;;;;5014830;28;20030;-78
2023/09/16 07:24:26;;;;;;;14.18;12.68;;;;;;;;;;5015129;28;20014;-78
2023/09/16 07:26:52;;;;;;;12.40;11.15;;;;;;;;;;5014864;28;20030;-78
2023/09/16 07:29:18;;;;;;;12.40;11.13;;;;;;;;;;5014629;28;20079;-78
2023/09/16 07:31:45;;;;;;;12.45;11.15;;;;;;;;;;5014511;28;20030;-78
2023/09/16 07:34:11;;;;;;;12.70;11.05;;;;;;;;;;5014694;28;20079;-78
2023/09/16 07:36:37;;;;;;;11.38;10.27;;;;;;;;;;4997222;28;20041;-78
2023/09/16 07:39:03;;;;;;;12.95;11.60;;;;;;;;;;4997847;28;20048;-79
2023/09/16 07:41:29;;;;;;;13.35;11.93;;;;;;;;;;4997415;28;20080;-78
2023/09/16 07:43:55;;;;;;;12.82;11.48;;;;;;;;;;5015107;28;20025;-78
2023/09/16 07:46:21;;;;;;;12.55;11.25;;;;;;;;;;5015544;28;20028;-77
2023/09/16 07:48:47;;;;;;;12.30;11.07;;;;;;;;;;5014986;28;20029;-78
2023/09/16 07:51:13;;;;;;;13.27;11.93;;;;;;;;;;4998779;28;20030;-78
2023/09/16 07:53:39;;;;;;;12.02;10.82;;;;;;;;;;5017196;28;20122;-78
2023/09/16 07:56:05;;;;;;;12.82;11.52;;;;;;;;;;5016556;28;20036;-78
2023/09/16 07:58:31;;;;;;;12.60;11.25;;;;;;;;;;5017760;28;20396;-78
2023/09/16 08:00:57;;;;;;;13.77;12.05;;;;;;;;;;5000085;28;20037;-78
2023/09/16 08:03:23;;;;;;;12.13;11.00;;;;;;;;;;5018359;28;20026;-78
2023/09/16 08:05:50;;;;;;;12.65;11.45;;;;;;;;;;5017901;28;20392;-78
2023/09/16 08:08:16;;;;;;;12.30;11.10;;;;;;;;;;5017760;28;20023;-78
2023/09/16 08:10:51;;;;;;;12.25;11.13;;;;;;;;;;5017097;28;20179;-78
2023/09/16 08:13:21;;;;;;;12.43;11.23;;;;;;;;;;5017318;28;20538;-78
2023/09/16 08:15:47;;;;;;;12.73;11.43;;;;;;;;;;5016406;28;20061;-79
2023/09/16 08:18:13;;;;;;;11.32;10.02;;;;;;;;;;5017274;28;20025;-78
2023/09/16 08:20:45;;;;;;;11.13;9.80;;;;;;;;;;4999783;28;20029;-78
2023/09/16 08:23:13;;;;;;;12.38;10.88;;;;;;;;;;5015216;28;20424;-78
2023/09/16 08:25:41;;;;;;;12.38;10.50;;;;;;;;;;5014738;28;20037;-77
2023/09/16 08:28:09;;;;;;;11.70;10.48;;;;;;;;;;5014352;28;20033;-77
2023/09/16 08:30:35;;;;;;;10.77;9.65;;;;;;;;;;5014424;28;20056;-77
2023/09/16 08:33:01;;;;;;;12.43;10.55;;;;;;;;;;5014159;28;20034;-77
2023/09/16 08:35:33;;;;;;;12.45;9.57;;;;;;;;;;5013653;28;20029;-78
2023/09/16 08:38:01;;;;;;;12.13;9.80;;;;;;;;;;5013154;28;20037;-78
2023/09/16 08:40:29;;;;;;;11.23;10.02;;;;;;;;;;4996146;28;20445;-78
2023/09/16 08:43:03;;;;;;;11.75;10.65;;;;;;;;;;5017412;28;20032;-78
2023/09/16 08:45:33;;;;;;;11.75;10.65;;;;;;;;;;5017488;28;20029;-77
2023/09/16 08:48:03;;;;;;;12.15;10.95;;;;;;;;;;4999771;28;20040;-78
2023/09/16 08:50:31;;;;;;;11.57;10.45;;;;;;;;;;5019025;28;20150;-78
2023/09/16 08:53:00;;;;;;;11.50;10.43;;;;;;;;;;5005146;28;20030;-79
2023/09/16 08:55:27;;;;;;;11.50;10.40;;;;;;;;;;5003881;28;20449;-78
2023/09/16 08:58:01;;;;;;;11.68;10.68;;;;;;;;;;5023984;28;20113;-79
2023/09/16 09:00:27;;;;;;;11.63;10.43;;;;;;;;;;5021981;28;20109;-79
2023/09/16 09:02:53;;;;;;;12.70;11.40;;;;;;;;;;5023783;28;20700;-78
2023/09/16 09:05:21;;;;;;;12.15;10.90;;;;;;;;;;5020557;28;20029;-78
2023/09/16 09:07:47;;;;;;;10.85;9.73;;;;;;;;;;5020761;28;20025;-78
2023/09/16 09:10:13;;;;;;;11.77;10.63;;;;;;;;;;5023533;28;20428;-78
2023/09/16 09:12:41;;;;;;;11.48;10.38;;;;;;;;;;5020886;28;20722;-78
2023/09/16 09:15:10;;;;;;;11.05;10.05;;;;;;;;;;5019910;28;20053;-79
2023/09/16 09:17:40;;;;;;;12.35;10.38;;;;;;;;;;5019108;28;20092;-79
2023/09/16 09:20:09;;;;;;;12.32;10.70;;;;;;;;;;5020263;28;20080;-78
2023/09/16 09:22:36;;;;;;;12.23;10.93;;;;;;;;;;5022158;28;20053;-79
2023/09/16 09:25:02;;;;;;;11.30;10.15;;;;;;;;;;5024093;28;20025;-78
2023/09/16 09:27:28;;;;;;;11.98;10.38;;;;;;;;;;5024048;28;20030;-78
2023/09/16 09:29:54;;;;;;;11.43;10.43;;;;;;;;;;5024092;28;20488;-78
2023/09/16 09:32:21;;;;;;;10.85;9.77;;;;;;;;;;5004161;28;20129;-78
2023/09/16 09:34:47;;;;;;;10.10;9.10;;;;;;;;;;5020765;28;20029;-78
2023/09/16 09:37:16;;;;;;;11.32;10.13;;;;;;;;;;5021844;28;20029;-79
2023/09/16 09:39:45;;;;;;;10.60;9.60;;;;;;;;;;5005070;28;20046;-79
2023/09/16 09:42:11;;;;;;;12.77;9.73;;;;;;;;;;5020432;28;20056;-77
2023/09/16 09:44:37;;;;;;;11.85;9.80;;;;;;;;;;5016236;28;20026;-77
2023/09/16 09:47:03;;;;;;;10.32;8.45;;;;;;;;;;5015703;28;20061;-78
2023/09/16 09:49:29;;;;;;;12.13;10.85;;;;;;;;;;5016109;28;20018;-77
2023/09/16 09:51:57;;;;;;;9.93;8.90;;;;;;;;;;5018004;28;20045;-79
2023/09/16 09:54:23;;;;;;;10.20;9.20;;;;;;;;;;5017419;28;20116;-79
2023/09/16 09:56:49;;;;;;;10.48;9.38;;;;;;;;;;5017585;28;20376;-78
2023/09/16 09:59:16;;;;;;;10.35;9.27;;;;;;;;;;5018186;28;20505;-79
2023/09/16 10:01:42;;;;;;;10.38;9.38;;;;;;;;;;5018081;28;20021;-79
2023/09/16 10:04:10;;;;;;;9.73;8.75;;;;;;;;;;4999379;28;20022;-79
2023/09/16 10:06:36;;;;;;;10.52;9.35;;;;;;;;;;5017897;28;20029;-78
2023/09/16 10:09:04;;;;;;;8.88;7.10;;;;;;;;;;5017751;28;20105;-78
2023/09/16 10:11:32;;;;;;;7.70;6.53;;;;;;;;;;5017445;28;20137;-79
2023/09/16 10:13:59;;;;;;;6.95;6.25;;;;;;;;;;5017092;28;20018;-79
2023/09/16 10:16:25;;;;;;;8.23;7.10;;;;;;;;;;5017078;28;20050;-79
2023/09/16 10:18:52;;;;;;;7.63;6.80;;;;;;;;;;5016940;28;20046;-79
2023/09/16 10:21:19;;;;;;;7.60;6.88;;;;;;;;;;5000665;28;20451;-80
2023/09/16 10:23:47;;;;;;;6.93;6.13;;;;;;;;;;5017615;28;20025;-79
2023/09/16 10:26:13;;;;;;;7.50;6.68;;;;;;;;;;5017882;28;20064;-79
2023/09/16 10:28:49;;;;;;;6.30;5.70;;;;;;;;;;5019219;28;20030;-79
2023/09/16 10:31:16;;;;;;;7.13;6.43;;;;;;;;;;5017656;28;20026;-79
2023/09/16 10:33:42;;;;;;;10.85;7.25;;;;;;;;;;5017744;28;20496;-79
2023/09/16 10:36:09;;;;;;;8.35;6.90;;;;;;;;;;5018873;28;20026;-79
2023/09/16 10:38:37;;;;;;;7.47;6.72;;;;;;;;;;5019340;28;20022;-79
2023/09/16 10:41:06;;;;;;;7.90;7.00;;;;;;;;;;5019429;28;20026;-79
2023/09/16 10:43:32;;;;;;;9.38;7.57;;;;;;;;;;5018986;28;20258;-79
2023/09/16 10:45:58;;;;;;;8.02;6.82;;;;;;;;;;5018897;28;20022;-79
2023/09/16 10:48:24;;;;;;;9.48;6.60;;;;;;;;;;5018748;28;20030;-79
2023/09/16 10:50:53;;;;;;;8.10;6.97;;;;;;;;;;5018510;28;20033;-79
2023/09/16 10:53:22;;;;;;;8.02;7.22;;;;;;;;;;5018658;28;20085;-79
2023/09/16 10:55:48;;;;;;;8.80;7.60;;;;;;;;;;5019017;28;20146;-79
2023/09/16 10:58:30;;;;;;;8.20;7.20;;;;;;;;;;5019046;28;20468;-79
2023/09/16 11:00:57;;;;;;;8.10;6.82;;;;;;;;;;5019109;28;20021;-79
2023/09/16 11:03:28;;;;;;;8.90;7.05;;;;;;;;;;5017224;28;20488;-80
2023/09/16 11:05:57;;;;;;;8.85;6.15;;;;;;;;;;5018885;28;20030;-79
2023/09/16 11:08:23;;;;;;;9.95;8.82;;;;;;;;;;5019124;28;20396;-79
2023/09/16 11:10:49;;;;;;;9.45;8.25;;;;;;;;;;5018940;28;20054;-79
2023/09/16 11:13:15;;;;;;;10.50;8.00;;;;;;;;;;5001433;28;20030;-79
2023/09/16 11:15:41;;;;;;;11.07;8.07;;;;;;;;;;5018526;28;20074;-80
2023/09/16 11:18:10;;;;;;;9.02;7.43;;;;;;;;;;5019291;28;20030;-79
2023/09/16 11:20:38;;;;;;;7.72;6.90;;;;;;;;;;5020043;28;20088;-79
2023/09/16 11:23:04;;;;;;;9.13;7.72;;;;;;;;;;5019445;28;20032;-79
2023/09/16 11:25:34;;;;;;;9.70;7.47;;;;;;;;;;5017765;28;20033;-79
2023/09/16 11:28:00;;;;;;;;;;;;;;;;;;5017590;28;20026;-79
2023/09/16 11:30:26;;;;;;;9.00;6.93;;;;;;;;;;5017982;28;19905;-79
2023/09/16 11:32:55;;;;;;;8.35;7.50;;;;;;;;;;5017338;28;20084;-79
2023/09/16 11:35:21;;;;;;;11.52;7.18;;;;;;;;;;5017741;28;20400;-79
2023/09/16 11:37:47;;;;;;;9.25;6.30;;;;;;;;;;5017779;28;20061;-79
2023/09/16 11:40:13;;;;;;;10.25;7.68;;;;;;;;;;5017443;28;20049;-79
2023/09/16 11:42:39;;;;;;;9.65;8.27;;;;;;;;;;5017304;28;20026;-79
2023/09/16 11:45:06;;;;;;;9.48;7.75;;;;;;;;;;5016351;28;20057;-79
2023/09/16 11:47:32;;;;;;;7.95;7.15;;;;;;;;;;5016434;28;20026;-79
2023/09/16 11:49:58;;;;;;;9.52;7.30;;;;;;;;;;5016481;28;20372;-79
2023/09/16 11:52:25;;;;;;;8.57;7.68;;;;;;;;;;5017839;28;20045;-79
2023/09/16 11:54:51;;;;;;;8.68;7.47;;;;;;;;;;5016408;28;20026;-79
2023/09/16 11:57:18;;;;;;;8.00;6.70;;;;;;;;;;5016165;28;20025;-79
2023/09/16 11:59:46;;;;;;;7.65;6.80;;;;;;;;;;5016884;28;20033;-79
2023/09/16 12:02:12;;;;;;;8.35;6.72;;;;;;;;;;5017054;28;20605;-79
2023/09/16 12:04:39;;;;;;;9.50;6.68;;;;;;;;;;5016814;28;20084;-79
2023/09/16 12:07:05;;;;;;;7.93;6.57;;;;;;;;;;5016757;28;20018;-79
2023/09/16 12:09:33;;;;;;;9.20;7.13;;;;;;;;;;4999258;28;20034;-79
2023/09/16 12:11:59;;;;;;;8.20;6.72;;;;;;;;;;5014206;28;20026;-79
2023/09/16 12:14:25;;;;;;;8.85;6.88;;;;;;;;;;4997487;28;20157;-79
2023/09/16 12:16:54;;;;;;;8.10;7.20;;;;;;;;;;5013099;28;20077;-78
2023/09/16 12:19:20;;;;;;;7.70;5.50;;;;;;;;;;5022096;28;20026;-79
2023/09/16 12:21:47;;;;;;;6.97;5.30;;;;;;;;;;5019932;28;20030;-78
2023/09/16 12:24:24;;;;;;;6.28;5.47;;;;;;;;;;5015885;28;20206;-78
2023/09/16 12:26:50;;;;;;;5.65;5.15;;;;;;;;;;5015221;28;20024;-78
2023/09/16 12:29:16;;;;;;;5.85;5.13;;;;;;;;;;5014953;28;20030;-77
2023/09/16 12:31:43;;;;;;;5.82;5.22;;;;;;;;;;5014633;28;20042;-77
2023/09/16 12:34:14;;;;;;;6.15;5.03;;;;;;;;;;5014770;28;20026;-77
2023/09/16 12:36:40;;;;;;;6.35;4.90;;;;;;;;;;5016579;28;20519;-78
2023/09/16 12:39:06;;;;;;;6.95;6.22;;;;;;;;;;5018680;28;20026;-78
2023/09/16 12:41:33;;;;;;;8.13;5.90;;;;;;;;;;5017952;28;20109;-78
2023/09/16 12:44:01;;;;;;;6.05;4.90;;;;;;;;;;5018732;28;20480;-79
2023/09/16 12:46:29;;;;;;;6.00;5.40;;;;;;;;;;5018496;28;20061;-78
2023/09/16 12:48:55;;;;;;;5.78;4.75;;;;;;;;;;5017781;28;20259;-77
2023/09/16 12:51:22;;;;;;;4.28;3.40;;;;;;;;;;5018536;28;20117;-78
2023/09/16 12:53:52;;;;;;;4.40;3.80;;;;;;;;;;5018531;28;20072;-78
2023/09/16 12:56:18;;;;;;;3.83;3.45;;;;;;;;;;5019063;28;20034;-78
2023/09/16 12:58:46;;;;;;;5.50;4.25;;;;;;;;;;5019494;28;20030;-79
2023/09/16 13:01:17;;;;;;;5.28;4.30;;;;;;;;;;5017588;28;20105;-78
2023/09/16 13:03:43;;;;;;;6.10;4.15;;;;;;;;;;5017547;28;20613;-78
2023/09/16 13:06:09;;;;;;;5.78;3.80;;;;;;;;;;5000753;28;20366;-78
2023/09/16 13:08:35;;;;;;;4.80;4.20;;;;;;;;;;5001536;28;20487;-79
2023/09/16 13:11:02;;;;;;;4.47;3.88;;;;;;;;;;5019108;28;20058;-78
2023/09/16 13:13:30;;;;;;;5.32;3.90;;;;;;;;;;5018893;28;20037;-78
2023/09/16 13:15:57;;;;;;;4.22;3.83;;;;;;;;;;5017325;28;20062;-79
2023/09/16 13:18:24;;;;;;;5.63;4.22;;;;;;;;;;5017299;28;20383;-78
2023/09/16 13:20:54;;;;;;;4.63;3.80;;;;;;;;;;5017543;28;20018;-78
2023/09/16 13:23:24;;;;;;;4.55;3.58;;;;;;;;;;5017662;28;20068;-78
2023/09/16 13:25:51;;;;;;;4.63;3.78;;;;;;;;;;5016985;28;20101;-78
2023/09/16 13:28:18;;;;;;;4.20;3.63;;;;;;;;;;5019157;28;20030;-78
2023/09/16 13:30:48;;;;;;;6.75;3.60;;;;;;;;;;5019736;28;20037;-78
2023/09/16 13:33:14;;;;;;;4.70;3.15;;;;;;;;;;5020185;28;20040;-78
2023/09/16 13:35:42;;;;;;;4.93;3.95;;;;;;;;;;5019525;28;20444;-78
2023/09/16 13:38:09;;;;;;;5.97;3.72;;;;;;;;;;5002442;28;20037;-78
2023/09/16 13:40:35;;;;;;;5.30;4.15;;;;;;;;;;5019376;28;20040;-78
2023/09/16 13:43:01;;;;;;;4.90;3.58;;;;;;;;;;5021904;28;20037;-78
2023/09/16 13:45:28;;;;;;;5.35;3.72;;;;;;;;;;5022708;28;20022;-78
2023/09/16 13:48:10;;;;;;;4.55;3.60;;;;;;;;;;5022105;28;20058;-78
2023/09/16 13:50:39;;;;;;;4.72;3.47;;;;;;;;;;5005106;28;20067;-79
2023/09/16 13:53:05;;;;;;;6.13;4.20;;;;;;;;;;5023475;28;20030;-79
2023/09/16 13:55:31;;;;;;;7.28;4.18;;;;;;;;;;5022705;28;20026;-79
2023/09/16 13:57:58;;;;;;;4.32;3.78;;;;;;;;;;5023048;28;20022;-79
2023/09/16 14:00:25;;;;;;;4.43;3.63;;;;;;;;;;5020453;28;20034;-78
2023/09/16 14:02:55;;;;;;;8.02;4.18;;;;;;;;;;5022864;28;20082;-79
2023/09/16 14:05:22;;;;;;;5.53;3.67;;;;;;;;;;5010825;28;20030;-79
2023/09/16 14:07:48;;;;;;;5.15;3.55;;;;;;;;;;5024197;28;20049;-79
2023/09/16 14:10:15;;;;;;;6.25;4.30;;;;;;;;;;5020751;28;20486;-79
2023/09/16 14:12:41;;;;;;;4.93;3.90;;;;;;;;;;5024012;28;20165;-79
2023/09/16 14:15:07;;;;;;;5.15;4.40;;;;;;;;;;5022993;28;20049;-79
2023/09/16 14:17:33;;;;;;;8.43;5.03;;;;;;;;;;4995915;28;20699;-78
2023/09/16 14:19:59;;;;;;;5.72;4.65;;;;;;;;;;4997068;28;20030;-78
2023/09/16 14:22:29;;;;;;;8.00;4.97;;;;;;;;;;4989136;28;20030;-78
2023/09/16 14:24:55;;;;;;;8.63;5.20;;;;;;;;;;4997176;28;20159;-78